Time;durP1;ratioP1;P1;durP2;ratioP2;P2;SDS_P1;SDS_P2;PMS_P1;PMS_P2;Temp;Humidity;BMP_temperature;BMP_pressure;BME280_temperature;BME280_humidity;BME280_pressure;Samples;Min_cycle;Max_cycle;Signal;HPM_P1;HPM_P2
2022/05/12 00:00:13;;;;;;;8.95;1.85;;;22.00;41.00;;;;;;5059788;28;20052;-45
2022/05/12 00:02:41;;;;;;;13.77;2.33;;;21.80;41.20;;;;;;5058426;28;20056;-43
2022/05/12 00:05:10;;;;;;;15.10;2.40;;;21.70;42.10;;;;;;5059654;28;20052;-46
2022/05/12 00:07:38;;;;;;;17.55;1.73;;;21.60;42.60;;;;;;5060810;28;20389;-43
2022/05/12 00:10:08;;;;;;;11.18;1.92;;;21.50;43.00;;;;;;5059490;28;20115;-45
2022/05/12 00:12:35;;;;;;;5.53;1.80;;;21.30;44.20;;;;;;5058001;28;20496;-43
2022/05/12 00:15:03;;;;;;;5.57;1.48;;;21.20;43.70;;;;;;5058324;28;20060;-46
2022/05/12 00:17:31;;;;;;;12.10;2.65;;;21.10;43.90;;;;;;5059293;28;20056;-44
2022/05/12 00:19:58;;;;;;;8.88;2.70;;;21.00;44.60;;;;;;5056872;28;20048;-43
2022/05/12 00:22:27;;;;;;;10.98;2.58;;;20.90;44.60;;;;;;5059237;28;20044;-43
2022/05/12 00:24:54;;;;;;;6.95;1.98;;;20.80;44.80;;;;;;5057423;28;20060;-42
2022/05/12 00:27:22;;;;;;;13.13;2.47;;;20.80;45.00;;;;;;5061208;28;20052;-43
2022/05/12 00:29:49;;;;;;;8.43;2.20;;;20.70;45.10;;;;;;5060202;28;20056;-43
2022/05/12 00:32:17;;;;;;;6.60;1.80;;;20.60;45.30;;;;;;5055010;28;20432;-45
2022/05/12 00:34:45;;;;;;;7.07;2.13;;;20.50;45.50;;;;;;5060293;28;20057;-43
2022/05/12 00:37:12;;;;;;;5.05;1.77;;;20.50;45.50;;;;;;5059861;28;20056;-43
2022/05/12 00:39:41;;;;;;;6.03;1.52;;;20.50;45.80;;;;;;5061507;28;20057;-43
2022/05/12 00:42:08;;;;;;;13.43;1.73;;;20.50;45.90;;;;;;5058935;28;20052;-43
2022/05/12 00:44:36;;;;;;;10.73;2.03;;;20.40;46.20;;;;;;5059596;28;20510;-43
2022/05/12 00:47:04;;;;;;;7.07;1.58;;;20.40;46.30;;;;;;5057860;28;20530;-43
2022/05/12 00:49:37;;;;;;;6.00;1.33;;;20.30;46.50;;;;;;5060791;28;20083;-43
2022/05/12 00:52:07;;;;;;;6.00;1.50;;;20.30;46.20;;;;;;5053202;28;20059;-46
2022/05/12 00:54:39;;;;;;;6.35;1.33;;;20.30;46.00;;;;;;5061406;28;20060;-45
2022/05/12 00:57:11;;;;;;;6.28;1.38;;;20.30;45.90;;;;;;5060998;28;20055;-43
2022/05/12 00:59:39;;;;;;;3.40;1.30;;;20.20;45.80;;;;;;5060957;28;20044;-44
2022/05/12 01:02:14;;;;;;;5.40;1.20;;;20.20;45.50;;;;;;5056413;28;20388;-43
2022/05/12 01:04:43;;;;;;;7.75;1.13;;;20.10;45.10;;;;;;5059490;28;20056;-47
2022/05/12 01:07:11;;;;;;;5.55;1.13;;;20.10;45.00;;;;;;5059189;28;20063;-43
2022/05/12 01:09:39;;;;;;;3.95;0.95;;;20.10;45.00;;;;;;5061426;28;20055;-42
2022/05/12 01:12:08;;;;;;;4.38;0.98;;;20.00;44.90;;;;;;5056579;28;20423;-44
2022/05/12 01:14:36;;;;;;;7.43;1.27;;;19.90;45.10;;;;;;5057108;28;20431;-44
2022/05/12 01:17:04;;;;;;;4.57;1.05;;;19.90;45.20;;;;;;5058491;28;20059;-44
2022/05/12 01:19:34;;;;;;;5.88;1.88;;;19.80;45.40;;;;;;5060520;28;20049;-44
2022/05/12 01:22:02;;;;;;;5.93;1.13;;;19.70;45.70;;;;;;5058200;28;20057;-44
2022/05/12 01:24:35;;;;;;;4.90;1.08;;;19.70;45.80;;;;;;5056873;28;20518;-43
2022/05/12 01:29:45;;;;;;;4.70;1.20;;;19.60;46.30;;;;;;5060961;28;20052;-43
2022/05/12 01:32:12;;;;;;;4.88;1.65;;;19.50;46.40;;;;;;5055502;28;20126;-47
2022/05/12 01:34:40;;;;;;;6.35;1.50;;;19.50;46.60;;;;;;5060201;28;20523;-43
2022/05/12 01:37:07;;;;;;;11.25;2.17;;;19.40;46.70;;;;;;5057313;28;20048;-43
2022/05/12 01:39:37;;;;;;;7.82;1.83;;;19.50;46.80;;;;;;5052969;28;20076;-43
2022/05/12 01:42:05;;;;;;;6.55;2.08;;;19.40;47.20;;;;;;5057712;28;20063;-43
2022/05/12 01:44:33;;;;;;;8.13;2.20;;;19.40;47.20;;;;;;5056261;28;20053;-44
2022/05/12 01:47:00;;;;;;;4.30;1.63;;;19.30;47.50;;;;;;5058066;28;20052;-43
2022/05/12 01:49:28;;;;;;;5.05;2.10;;;19.30;47.30;;;;;;5057606;28;20606;-43
2022/05/12 01:51:57;;;;;;;5.57;1.80;;;19.20;47.50;;;;;;5057571;28;20056;-44
2022/05/12 01:54:25;;;;;;;7.72;2.17;;;19.20;47.70;;;;;;5062171;28;20048;-44
2022/05/12 01:56:54;;;;;;;8.40;1.98;;;19.10;48.00;;;;;;5062780;28;20056;-44
2022/05/12 01:59:23;;;;;;;5.85;1.92;;;19.10;48.00;;;;;;5063918;28;20699;-44
2022/05/12 02:01:51;;;;;;;5.47;2.15;;;19.00;48.20;;;;;;5058540;28;20064;-44
2022/05/12 02:04:18;;;;;;;6.43;2.10;;;19.00;48.50;;;;;;5062367;28;20496;-49
2022/05/12 02:06:47;;;;;;;5.50;1.80;;;18.90;48.70;;;;;;5063369;28;20052;-45
2022/05/12 02:09:14;;;;;;;9.35;2.03;;;18.80;48.70;;;;;;5064107;28;20059;-43
2022/05/12 02:11:41;;;;;;;4.90;1.75;;;18.80;49.00;;;;;;5061264;28;20448;-45
2022/05/12 02:14:10;;;;;;;4.28;1.73;;;18.80;49.00;;;;;;5062369;28;20045;-44
2022/05/12 02:16:38;;;;;;;10.45;1.73;;;18.70;49.10;;;;;;5062006;28;20060;-44
2022/05/12 02:19:08;;;;;;;9.73;2.25;;;18.70;49.30;;;;;;5061318;28;20056;-44
2022/05/12 02:21:36;;;;;;;5.50;1.65;;;18.60;49.50;;;;;;5060684;28;20083;-44
2022/05/12 02:24:05;;;;;;;10.02;2.00;;;18.60;49.50;;;;;;5060862;28;20484;-44
2022/05/12 02:26:32;;;;;;;13.00;2.20;;;18.60;49.80;;;;;;5062000;28;20226;-44
2022/05/12 02:29:01;;;;;;;10.00;2.30;;;18.60;50.60;;;;;;5064390;28;20056;-44
2022/05/12 02:31:29;;;;;;;8.90;2.40;;;18.50;50.40;;;;;;5059904;28;20479;-43
2022/05/12 02:33:57;;;;;;;7.13;1.98;;;18.50;50.30;;;;;;5060431;28;20056;-45
2022/05/12 02:36:24;;;;;;;8.95;2.10;;;18.50;50.60;;;;;;5061517;28;20056;-44
2022/05/12 02:38:52;;;;;;;13.23;2.72;;;18.50;50.50;;;;;;5062746;28;20396;-44
2022/05/12 02:41:19;;;;;;;8.20;2.45;;;18.40;50.80;;;;;;5060911;28;20056;-44
2022/05/12 02:43:47;;;;;;;12.07;2.50;;;18.40;50.70;;;;;;5053726;28;20052;-44
2022/05/12 02:46:15;;;;;;;8.40;2.90;;;18.40;50.80;;;;;;5059147;28;20059;-45
2022/05/12 02:48:45;;;;;;;7.47;2.13;;;18.40;50.90;;;;;;5060585;28;20052;-44
2022/05/12 02:51:14;;;;;;;8.43;2.10;;;18.40;50.80;;;;;;5063538;28;20061;-45
2022/05/12 02:53:42;;;;;;;5.20;2.35;;;18.40;50.80;;;;;;5058217;28;20484;-43
2022/05/12 02:56:11;;;;;;;8.60;2.70;;;18.40;51.10;;;;;;5063282;28;20056;-44
2022/05/12 02:58:38;;;;;;;7.30;2.50;;;18.50;51.00;;;;;;5062431;28;20048;-43
2022/05/12 03:01:07;;;;;;;5.88;2.40;;;18.50;51.10;;;;;;5061754;28;20056;-45
2022/05/12 03:03:35;;;;;;;5.45;2.50;;;18.50;51.10;;;;;;5051720;28;20045;-44
2022/05/12 03:06:05;;;;;;;9.63;2.60;;;18.40;51.10;;;;;;5062549;28;20064;-44
2022/05/12 03:08:32;;;;;;;5.72;2.33;;;18.40;51.00;;;;;;5060803;28;20053;-44
2022/05/12 03:11:00;;;;;;;5.65;2.08;;;18.40;51.20;;;;;;5056797;28;20052;-43
2022/05/12 03:13:28;;;;;;;5.15;2.35;;;18.50;51.20;;;;;;5062139;28;20056;-47
2022/05/12 03:15:56;;;;;;;4.07;2.25;;;18.50;51.30;;;;;;5058467;28;20048;-44
2022/05/12 03:18:25;;;;;;;8.00;2.35;;;18.40;51.20;;;;;;5061212;28;20056;-44
2022/05/12 03:20:53;;;;;;;5.57;2.28;;;18.40;51.20;;;;;;5061697;28;20056;-44
2022/05/12 03:23:23;;;;;;;6.72;2.53;;;18.40;51.20;;;;;;5062083;28;20052;-45
2022/05/12 03:25:51;;;;;;;8.55;3.00;;;18.40;51.30;;;;;;5060901;28;20063;-46
2022/05/12 03:28:19;;;;;;;4.93;2.58;;;18.40;51.60;;;;;;5061747;28;20057;-44
2022/05/12 03:30:47;;;;;;;7.15;3.08;;;18.40;51.60;;;;;;5057433;28;20400;-43
2022/05/12 03:33:15;;;;;;;7.90;2.70;;;18.30;51.70;;;;;;5058182;28;20059;-44
2022/05/12 03:35:42;;;;;;;6.65;2.60;;;18.30;51.70;;;;;;5061288;28;20056;-44
2022/05/12 03:38:10;;;;;;;7.45;3.00;;;18.20;51.50;;;;;;5056944;28;20053;-44
2022/05/12 03:40:40;;;;;;;9.65;3.53;;;18.20;51.50;;;;;;5061757;28;20075;-44
2022/05/12 03:43:08;;;;;;;7.35;3.33;;;18.10;51.50;;;;;;5061139;28;20051;-44
2022/05/12 03:45:34;;;;;;;9.40;3.47;;;18.10;51.50;;;;;;5060608;28;20673;-44
2022/05/12 03:48:02;;;;;;;10.57;4.35;;;18.00;51.50;;;;;;5058929;28;20131;-44
2022/05/12 03:50:30;;;;;;;10.70;5.93;;;17.90;51.70;;;;;;5058340;28;20059;-43
2022/05/12 03:52:57;;;;;;;12.23;5.60;;;17.90;51.80;;;;;;5061972;28;20052;-44
2022/05/12 03:55:27;;;;;;;13.50;7.45;;;17.90;51.90;;;;;;5057871;28;20052;-45
2022/05/12 03:57:56;;;;;;;12.70;7.28;;;17.80;51.80;;;;;;5054743;28;20048;-47
2022/05/12 04:00:27;;;;;;;14.63;8.25;;;17.80;51.90;;;;;;5062293;28;20048;-44
2022/05/12 04:02:56;;;;;;;12.18;7.53;;;17.70;52.00;;;;;;5061220;28;20110;-43
2022/05/12 04:05:23;;;;;;;13.85;7.75;;;17.60;52.10;;;;;;5061243;28;20056;-44
2022/05/12 04:07:52;;;;;;;11.88;6.53;;;17.50;52.20;;;;;;5061340;28;20059;-44
2022/05/12 04:10:20;;;;;;;16.63;5.75;;;17.50;52.20;;;;;;5060517;28;20059;-44
2022/05/12 04:12:47;;;;;;;9.95;5.28;;;17.50;52.40;;;;;;5058535;28;20048;-44
2022/05/12 04:15:16;;;;;;;7.95;3.58;;;17.40;52.70;;;;;;5055572;28;20057;-45
2022/05/12 04:17:44;;;;;;;11.40;4.65;;;17.30;53.40;;;;;;5048926;28;20055;-44
2022/05/12 04:20:14;;;;;;;10.57;4.65;;;17.30;53.10;;;;;;5057135;28;20045;-44
2022/05/12 04:22:43;;;;;;;11.10;4.93;;;17.20;53.20;;;;;;5058103;28;20057;-44
2022/05/12 04:25:11;;;;;;;15.20;4.97;;;17.20;53.20;;;;;;5061154;28;20056;-45
2022/05/12 04:27:39;;;;;;;10.90;5.18;;;17.10;53.40;;;;;;5058857;28;20060;-44
2022/05/12 04:30:09;;;;;;;12.30;5.03;;;17.10;53.50;;;;;;5055867;28;20063;-44
2022/05/12 04:32:38;;;;;;;11.20;4.45;;;17.10;53.70;;;;;;5049920;28;20063;-44
2022/05/12 04:35:11;;;;;;;14.65;4.97;;;17.10;53.70;;;;;;5061597;28;20064;-44
2022/05/12 04:37:40;;;;;;;13.20;3.65;;;17.00;54.00;;;;;;5058305;28;20048;-44
2022/05/12 04:40:11;;;;;;;11.85;3.47;;;17.00;53.80;;;;;;5058174;28;20052;-44
2022/05/12 04:42:38;;;;;;;10.15;3.38;;;16.90;53.50;;;;;;5057507;28;20052;-46
2022/05/12 04:45:07;;;;;;;10.13;3.35;;;16.90;53.30;;;;;;5060688;28;20060;-45
2022/05/12 04:47:36;;;;;;;8.93;2.72;;;16.90;52.80;;;;;;5057279;28;20056;-44
2022/05/12 04:50:06;;;;;;;6.88;2.65;;;16.80;52.10;;;;;;5057414;28;20063;-46
2022/05/12 04:52:34;;;;;;;9.85;3.30;;;16.70;51.90;;;;;;5058541;28;20084;-46
2022/05/12 04:55:02;;;;;;;10.27;3.53;;;16.70;52.20;;;;;;5058250;28;20048;-52
2022/05/12 04:57:36;;;;;;;8.40;3.60;;;16.60;52.20;;;;;;5057925;28;20048;-47
2022/05/12 05:00:07;;;;;;;9.65;3.95;;;16.50;52.60;;;;;;5057533;28;20048;-47
2022/05/12 05:02:35;;;;;;;10.05;5.13;;;16.50;53.10;;;;;;5055992;28;20411;-47
2022/05/12 05:05:04;;;;;;;12.82;4.88;;;16.40;53.40;;;;;;5057606;28;20059;-47
2022/05/12 05:07:33;;;;;;;14.18;5.10;;;16.40;53.70;;;;;;5059185;28;20082;-47
2022/05/12 05:10:00;;;;;;;10.63;4.90;;;16.30;53.80;;;;;;5058478;28;20488;-46
2022/05/12 05:12:27;;;;;;;11.77;5.45;;;16.30;54.30;;;;;;5055265;28;20060;-46
2022/05/12 05:14:55;;;;;;;13.30;5.38;;;16.30;54.40;;;;;;5055488;28;20049;-46
2022/05/12 05:17:24;;;;;;;12.05;4.97;;;16.20;54.30;;;;;;5056461;28;20059;-46
2022/05/12 05:19:53;;;;;;;9.63;4.88;;;16.20;54.40;;;;;;5059833;28;20059;-46
2022/05/12 05:22:22;;;;;;;14.45;5.00;;;16.20;54.50;;;;;;5058202;28;20056;-49
2022/05/12 05:24:50;;;;;;;11.70;4.95;;;16.20;54.60;;;;;;5061214;28;20464;-47
2022/05/12 05:27:17;;;;;;;10.77;4.07;;;16.20;54.40;;;;;;5060263;28;20941;-46
2022/05/12 05:29:45;;;;;;;11.40;4.78;;;16.20;54.10;;;;;;5065115;28;20052;-46
2022/05/12 05:32:13;;;;;;;12.10;3.72;;;16.20;54.40;;;;;;5061359;28;20056;-46
2022/05/12 05:34:40;;;;;;;10.10;3.33;;;16.20;53.60;;;;;;5062935;28;20052;-44
2022/05/12 05:37:08;;;;;;;9.13;2.92;;;16.30;53.50;;;;;;5060804;28;20052;-45
2022/05/12 05:39:36;;;;;;;10.40;3.38;;;16.30;53.50;;;;;;5062170;28;20492;-44
2022/05/12 05:42:07;;;;;;;7.50;3.00;;;16.40;53.20;;;;;;5059621;28;20503;-45
2022/05/12 05:44:35;;;;;;;8.95;3.55;;;16.40;52.80;;;;;;5055239;28;20044;-44
2022/05/12 05:47:03;;;;;;;7.50;3.15;;;16.50;53.00;;;;;;5062088;28;20057;-44
2022/05/12 05:49:31;;;;;;;8.75;3.53;;;16.50;52.90;;;;;;5058294;28;20060;-44
2022/05/12 05:54:45;;;;;;;12.80;3.60;;;16.60;52.80;;;;;;5066218;28;20059;-44
2022/05/12 05:57:12;;;;;;;9.98;3.30;;;16.60;53.00;;;;;;5057822;28;20477;-45
2022/05/12 05:59:40;;;;;;;10.55;3.88;;;16.70;52.70;;;;;;5052751;28;20048;-44
2022/05/12 06:02:07;;;;;;;7.53;3.70;;;16.70;52.90;;;;;;5047961;28;20058;-44
2022/05/12 06:04:35;;;;;;;9.80;3.65;;;16.80;52.50;;;;;;5050564;28;20060;-48
2022/05/12 06:07:02;;;;;;;8.35;3.20;;;16.80;52.20;;;;;;5054100;28;20052;-46
2022/05/12 06:09:30;;;;;;;10.68;3.65;;;16.80;52.10;;;;;;5052210;28;20049;-47
2022/05/12 06:11:59;;;;;;;8.75;3.20;;;16.80;52.00;;;;;;5061301;28;20398;-44
2022/05/12 06:14:28;;;;;;;9.57;3.58;;;16.90;51.90;;;;;;5064634;28;20048;-43
2022/05/12 06:16:56;;;;;;;9.38;2.80;;;16.90;52.10;;;;;;5062869;28;20053;-44
2022/05/12 06:19:23;;;;;;;14.57;3.20;;;17.00;51.50;;;;;;5063645;28;20057;-44
2022/05/12 06:21:51;;;;;;;11.60;3.35;;;17.10;51.40;;;;;;5063380;28;20052;-44
2022/05/12 06:24:19;;;;;;;7.65;2.63;;;17.10;51.50;;;;;;5062728;28;20059;-45
2022/05/12 06:26:46;;;;;;;7.80;2.72;;;17.10;51.20;;;;;;5063056;28;20060;-44
2022/05/12 06:29:15;;;;;;;9.60;3.10;;;17.20;51.10;;;;;;5061175;28;20492;-44
2022/05/12 06:31:42;;;;;;;7.65;2.80;;;17.20;50.40;;;;;;5059759;28;20048;-45
2022/05/12 06:34:10;;;;;;;15.52;3.05;;;17.30;50.50;;;;;;5060056;28;20053;-44
2022/05/12 06:36:37;;;;;;;10.63;3.45;;;17.30;50.30;;;;;;5060731;28;20048;-44
2022/05/12 06:39:05;;;;;;;8.45;3.38;;;17.30;49.90;;;;;;5061220;28;20071;-44
2022/05/12 06:41:33;;;;;;;11.38;3.20;;;17.30;49.90;;;;;;5063783;28;20419;-44
2022/05/12 06:44:02;;;;;;;9.57;3.22;;;17.30;50.30;;;;;;5060644;28;20044;-45
2022/05/12 06:46:31;;;;;;;9.07;2.67;;;17.30;50.30;;;;;;5060285;28;20052;-47
2022/05/12 06:49:02;;;;;;;7.38;2.70;;;17.40;50.30;;;;;;5060129;28;21281;-43
2022/05/12 06:51:29;;;;;;;12.70;3.28;;;17.40;49.90;;;;;;5061913;28;20040;-45
2022/05/12 06:53:56;;;;;;;8.38;2.33;;;17.40;49.50;;;;;;5060921;28;20052;-44
2022/05/12 06:56:24;;;;;;;8.93;2.67;;;17.30;48.70;;;;;;5060902;28;20059;-44
2022/05/12 06:58:51;;;;;;;6.05;2.63;;;17.30;49.10;;;;;;5062230;28;20056;-44
2022/05/12 07:01:20;;;;;;;10.77;2.13;;;17.30;49.00;;;;;;5058124;28;20056;-43
2022/05/12 07:03:49;;;;;;;10.07;1.95;;;17.20;48.50;;;;;;5060998;28;20052;-43
2022/05/12 07:06:16;;;;;;;13.88;2.38;;;17.20;48.00;;;;;;5060431;28;20063;-43
2022/05/12 07:08:44;;;;;;;10.27;2.13;;;17.30;47.90;;;;;;5046643;28;20056;-44
2022/05/12 07:11:12;;;;;;;8.45;2.28;;;17.30;47.60;;;;;;5060512;28;20064;-43
2022/05/12 07:13:40;;;;;;;8.00;2.10;;;17.30;47.70;;;;;;5058368;28;20048;-44
2022/05/12 07:16:09;;;;;;;9.77;2.35;;;17.40;47.90;;;;;;5058464;28;20048;-44
2022/05/12 07:18:37;;;;;;;16.98;3.03;;;17.40;48.00;;;;;;5054327;28;20044;-47
2022/05/12 07:26:39;;;;;;;7.35;2.20;;;17.60;48.00;;;;;;5066368;28;20051;-43
2022/05/12 07:29:10;;;;;;;11.82;2.20;;;17.60;48.00;;;;;;5059033;28;20408;-48
2022/05/12 07:31:37;;;;;;;8.15;2.67;;;17.60;47.60;;;;;;5050565;28;20408;-43
2022/05/12 07:34:06;;;;;;;7.68;3.58;;;17.70;48.10;;;;;;5057145;28;20504;-46
2022/05/12 07:36:38;;;;;;;9.52;2.90;;;17.70;48.80;;;;;;5057562;28;20060;-45
2022/05/12 07:39:06;;;;;;;6.63;2.88;;;17.80;48.40;;;;;;5058712;28;20518;-44
2022/05/12 07:41:34;;;;;;;7.10;2.97;;;17.80;48.30;;;;;;5054215;28;20063;-44
2022/05/12 07:44:01;;;;;;;8.82;2.83;;;17.90;48.20;;;;;;5062120;28;20056;-47
2022/05/12 07:46:31;;;;;;;9.30;2.50;;;18.00;48.20;;;;;;5057043;28;20067;-44
2022/05/12 07:48:59;;;;;;;14.85;3.53;;;18.10;47.70;;;;;;5055494;28;20056;-43
2022/05/12 07:51:26;;;;;;;14.43;3.20;;;18.20;47.60;;;;;;5056396;28;20049;-45
2022/05/12 07:53:55;;;;;;;13.57;4.28;;;18.20;46.50;;;;;;5056871;28;20492;-44
2022/05/12 07:56:25;;;;;;;7.82;2.60;;;18.20;46.00;;;;;;5058642;28;20060;-43
2022/05/12 07:58:53;;;;;;;8.20;2.90;;;18.20;45.60;;;;;;5054340;28;20894;-44
2022/05/12 08:01:21;;;;;;;11.52;4.25;;;18.20;45.60;;;;;;5045867;28;20059;-44
2022/05/12 08:03:49;;;;;;;13.48;4.40;;;18.20;45.90;;;;;;5046806;28;20052;-44
2022/05/12 08:06:17;;;;;;;13.60;4.10;;;18.20;46.50;;;;;;5058044;28;20056;-44
2022/05/12 08:08:47;;;;;;;13.95;3.53;;;18.20;46.00;;;;;;5062207;28;20064;-43
2022/05/12 08:11:16;;;;;;;15.88;5.03;;;18.20;46.50;;;;;;5061954;28;20052;-44
2022/05/12 08:13:47;;;;;;;9.82;3.58;;;18.20;46.40;;;;;;5056545;28;20052;-44
2022/05/12 08:16:16;;;;;;;11.35;3.58;;;18.30;46.80;;;;;;5056185;28;20423;-43
2022/05/12 08:18:45;;;;;;;11.80;4.20;;;18.30;46.80;;;;;;5057784;28;20416;-44
2022/05/12 08:21:13;;;;;;;23.67;5.95;;;18.40;46.60;;;;;;5060379;28;20404;-45
2022/05/12 08:23:41;;;;;;;8.70;2.78;;;18.40;47.10;;;;;;5053881;28;20064;-44
2022/05/12 08:26:09;;;;;;;10.35;3.50;;;18.50;47.20;;;;;;5057943;28;20419;-43
2022/05/12 08:28:40;;;;;;;12.48;3.90;;;18.50;47.00;;;;;;5052215;28;20056;-44
2022/05/12 08:31:07;;;;;;;12.05;3.58;;;18.60;46.50;;;;;;5042848;28;20058;-44
2022/05/12 08:33:35;;;;;;;9.13;2.20;;;18.70;46.80;;;;;;5047701;28;20060;-48
2022/05/12 08:36:03;;;;;;;6.72;2.35;;;18.70;46.30;;;;;;5041543;28;20060;-43
2022/05/12 08:38:31;;;;;;;6.50;2.30;;;18.80;46.10;;;;;;5060639;28;20519;-44
2022/05/12 08:41:09;;;;;;;8.35;1.95;;;18.90;45.60;;;;;;5050561;28;20436;-43
2022/05/12 08:43:47;;;;;;;8.35;2.42;;;18.90;45.20;;;;;;5050079;28;20052;-43
2022/05/12 08:46:20;;;;;;;10.18;2.92;;;19.00;45.00;;;;;;5058992;28;20052;-44
2022/05/12 08:48:49;;;;;;;15.10;2.00;;;19.10;45.40;;;;;;5055798;28;20063;-43
2022/05/12 08:51:19;;;;;;;10.48;2.10;;;19.10;45.00;;;;;;5057470;28;20555;-45
2022/05/12 08:53:54;;;;;;;8.65;2.65;;;19.10;45.00;;;;;;5049918;28;20052;-43
2022/05/12 08:56:24;;;;;;;5.43;1.83;;;19.20;44.90;;;;;;5061266;28;20052;-44
2022/05/12 08:58:56;;;;;;;5.70;1.92;;;19.20;44.40;;;;;;5060723;28;20059;-44
2022/05/12 09:01:36;;;;;;;7.63;1.90;;;19.20;45.10;;;;;;5060864;28;20052;-43
2022/05/12 09:04:21;;;;;;;7.53;2.33;;;19.20;45.20;;;;;;5054315;28;20095;-44
2022/05/12 09:06:59;;;;;;;10.27;2.35;;;19.30;44.50;;;;;;5060085;28;20056;-43
2022/05/12 09:09:32;;;;;;;6.35;2.28;;;19.30;44.50;;;;;;5057456;28;20045;-44
2022/05/12 09:12:08;;;;;;;6.03;2.20;;;19.30;45.10;;;;;;5058922;28;20051;-44
2022/05/12 09:14:46;;;;;;;10.90;2.38;;;19.30;44.30;;;;;;5058816;28;20056;-45
2022/05/12 09:17:20;;;;;;;7.03;1.77;;;19.30;43.70;;;;;;5056626;28;20051;-49
2022/05/12 09:19:48;;;;;;;;;;;19.30;44.00;;;;;;5058343;28;20067;-44
2022/05/12 09:22:24;;;;;;;5.88;2.30;;;19.40;44.70;;;;;;5054975;28;19924;-46
2022/05/12 09:24:52;;;;;;;7.57;1.55;;;19.40;43.80;;;;;;5060856;28;20063;-45
2022/05/12 09:27:29;;;;;;;4.50;1.50;;;19.40;44.10;;;;;;5061061;28;20060;-44
2022/05/12 09:29:58;;;;;;;6.32;1.70;;;19.40;44.70;;;;;;5060299;28;20065;-44
2022/05/12 09:32:27;;;;;;;7.18;2.28;;;19.40;45.30;;;;;;5051356;28;20044;-43
2022/05/12 09:35:23;;;;;;;6.07;2.00;;;19.40;44.70;;;;;;5059732;28;20056;-44
2022/05/12 09:37:52;;;;;;;9.38;2.42;;;19.40;44.10;;;;;;5055991;28;20079;-44
2022/05/12 09:40:31;;;;;;;9.20;2.05;;;19.40;43.90;;;;;;5059482;28;20059;-44
2022/05/12 09:43:02;;;;;;;8.77;1.98;;;19.50;44.10;;;;;;5056808;28;20335;-44
2022/05/12 09:45:34;;;;;;;9.00;2.20;;;19.60;44.00;;;;;;5056201;28;20457;-44
2022/05/12 09:48:19;;;;;;;6.00;1.73;;;19.60;43.20;;;;;;5054313;28;20059;-44
2022/05/12 09:50:47;;;;;;;4.15;1.75;;;19.60;43.40;;;;;;5059621;28;20427;-45
2022/05/12 09:53:25;;;;;;;6.53;1.77;;;19.70;43.90;;;;;;5056285;28;20049;-44
2022/05/12 09:56:02;;;;;;;7.53;2.10;;;19.70;43.20;;;;;;5055018;28;20052;-44
2022/05/12 09:58:36;;;;;;;4.93;2.25;;;19.70;43.50;;;;;;5059283;28;20510;-45
2022/05/12 10:01:21;;;;;;;;;;;19.80;42.40;;;;;;5057182;28;20056;-43
2022/05/12 10:09:55;;;;;;;7.93;1.85;;;19.90;43.40;;;;;;5056175;28;20044;-43
2022/05/12 10:12:26;;;;;;;6.15;1.85;;;19.90;43.00;;;;;;5057461;28;20053;-44
2022/05/12 10:14:58;;;;;;;9.18;2.38;;;20.00;42.50;;;;;;5061682;28;20057;-47
2022/05/12 10:17:30;;;;;;;7.95;2.13;;;20.00;42.40;;;;;;5059652;28;20060;-44
2022/05/12 10:20:00;;;;;;;5.40;2.13;;;20.00;41.70;;;;;;5061754;28;20055;-44
2022/05/12 10:22:33;;;;;;;9.85;2.20;;;20.10;42.30;;;;;;5059389;28;20068;-44
2022/05/12 10:25:17;;;;;;;5.50;2.25;;;20.10;42.30;;;;;;5061630;28;20388;-44
2022/05/12 10:27:52;;;;;;;6.25;1.95;;;20.20;42.10;;;;;;5061037;28;20063;-44
2022/05/12 10:30:33;;;;;;;5.35;2.30;;;20.30;42.10;;;;;;5058631;28;20660;-44
2022/05/12 10:33:14;;;;;;;5.35;2.42;;;20.30;41.20;;;;;;5055341;28;20053;-44
2022/05/12 10:35:48;;;;;;;4.43;2.20;;;20.50;41.80;;;;;;5058192;28;20056;-44
2022/05/12 10:38:29;;;;;;;4.10;2.03;;;20.50;41.30;;;;;;5063808;28;20056;-48
2022/05/12 10:41:04;;;;;;;6.78;2.20;;;20.60;41.10;;;;;;5063048;28;20504;-45
2022/05/12 10:44:00;;;;;;;7.03;2.17;;;20.60;41.60;;;;;;5058658;28;20483;-44
2022/05/12 10:46:42;;;;;;;7.72;2.30;;;20.60;41.70;;;;;;5059293;28;20064;-44
2022/05/12 10:49:20;;;;;;;8.55;2.20;;;20.60;41.70;;;;;;5062665;28;20550;-44
2022/05/12 10:51:59;;;;;;;8.48;1.95;;;20.60;40.80;;;;;;5060589;28;20052;-45
2022/05/12 10:54:33;;;;;;;5.47;1.60;;;20.50;42.00;;;;;;5063655;28;20515;-44
2022/05/12 10:57:16;;;;;;;3.30;1.48;;;20.50;40.90;;;;;;5061752;28;20056;-44
2022/05/12 11:00:03;;;;;;;7.28;2.00;;;20.40;41.20;;;;;;5063588;28;20063;-44
2022/05/12 11:02:40;;;;;;;9.63;2.22;;;20.50;41.80;;;;;;5058428;28;20047;-44
2022/05/12 11:05:24;;;;;;;4.25;1.90;;;20.50;41.50;;;;;;5061406;28;21319;-44
2022/05/12 11:07:56;;;;;;;18.88;2.45;;;20.60;41.20;;;;;;5063022;28;20064;-44
2022/05/12 11:10:30;;;;;;;8.65;2.08;;;20.70;40.80;;;;;;5057403;28;20412;-47
2022/05/12 11:13:03;;;;;;;4.32;1.90;;;20.80;41.40;;;;;;5057915;28;20052;-44
2022/05/12 11:15:39;;;;;;;5.53;2.03;;;20.90;41.40;;;;;;5062819;28;20057;-46
2022/05/12 11:18:17;;;;;;;5.82;1.98;;;21.00;41.00;;;;;;5061453;28;20498;-44
2022/05/12 11:20:55;;;;;;;5.18;1.92;;;21.20;40.50;;;;;;5063015;28;20053;-44
2022/05/12 11:23:34;;;;;;;3.83;1.50;;;21.20;41.80;;;;;;5059706;28;20052;-44
2022/05/12 11:26:09;;;;;;;6.57;2.00;;;21.40;40.90;;;;;;5062927;28;20515;-44
2022/05/12 11:31:37;;;;;;;4.55;1.70;;;21.50;40.20;;;;;;5058934;28;20079;-44
2022/05/12 11:34:09;;;;;;;5.47;2.20;;;21.60;40.70;;;;;;5061417;28;20408;-45
2022/05/12 11:36:40;;;;;;;4.65;1.77;;;21.60;40.10;;;;;;5058866;28;20408;-44
2022/05/12 11:39:29;;;;;;;5.93;1.90;;;21.60;40.00;;;;;;5061533;28;20052;-48
2022/05/12 11:42:16;;;;;;;4.13;1.60;;;21.60;39.40;;;;;;5058072;28;20532;-44
2022/05/12 11:44:54;;;;;;;6.70;1.67;;;21.50;39.90;;;;;;5062074;28;20420;-44
2022/05/12 11:47:58;;;;;;;4.80;1.90;;;21.50;40.70;;;;;;5060634;28;20048;-46
2022/05/12 11:50:54;;;;;;;7.72;2.40;;;21.50;39.50;;;;;;5062530;28;20479;-46
2022/05/12 11:53:27;;;;;;;4.32;1.52;;;21.50;39.10;;;;;;5044888;28;20052;-44
2022/05/12 11:56:01;;;;;;;3.42;1.85;;;21.60;39.30;;;;;;5060276;28;20511;-44
2022/05/12 11:58:41;;;;;;;5.70;2.20;;;21.60;39.30;;;;;;5062053;28;20079;-44
2022/05/12 12:01:12;;;;;;;8.73;1.85;;;21.60;39.10;;;;;;5062096;28;20938;-44
2022/05/12 12:03:58;;;;;;;4.05;1.70;;;21.60;38.70;;;;;;5057780;28;20056;-44
2022/05/12 12:06:48;;;;;;;5.15;1.48;;;21.60;40.10;;;;;;5061800;28;20056;-44
2022/05/12 12:09:50;;;;;;;8.63;1.75;;;21.60;39.90;;;;;;5060148;28;20060;-47
2022/05/12 12:12:54;;;;;;;4.85;1.40;;;21.60;38.60;;;;;;5057654;28;20056;-44
2022/05/12 12:16:03;;;;;;;3.63;1.25;;;21.70;38.30;;;;;;5061863;28;20052;-44
2022/05/12 12:18:53;;;;;;;4.18;1.45;;;21.70;40.30;;;;;;5060578;28;20056;-44
2022/05/12 12:21:42;;;;;;;4.63;1.70;;;21.80;39.00;;;;;;5060226;28;20052;-44
2022/05/12 12:24:41;;;;;;;4.65;1.65;;;21.80;39.00;;;;;;5060012;28;20052;-45
2022/05/12 12:27:56;;;;;;;4.05;1.50;;;21.90;39.10;;;;;;5060345;28;20060;-44
2022/05/12 12:30:59;;;;;;;8.85;2.28;;;22.00;38.70;;;;;;5058114;28;20496;-43
2022/05/12 12:34:02;;;;;;;5.57;1.80;;;22.20;38.20;;;;;;5056387;28;20057;-45
2022/05/12 12:37:06;;;;;;;7.05;1.80;;;22.20;38.40;;;;;;5058279;28;20065;-43
2022/05/12 12:39:40;;;;;;;4.70;1.52;;;22.30;38.20;;;;;;5060277;28;20052;-44
2022/05/12 12:42:28;;;;;;;5.70;1.88;;;22.30;38.00;;;;;;5056703;28;20056;-43
2022/05/12 12:44:58;;;;;;;5.28;1.58;;;22.30;37.70;;;;;;5061395;28;20075;-44
2022/05/12 12:47:40;;;;;;;6.07;1.55;;;22.30;37.70;;;;;;5060284;28;20056;-44
2022/05/12 12:50:23;;;;;;;4.03;1.60;;;22.40;38.00;;;;;;5060859;28;20079;-45
2022/05/12 12:52:51;;;;;;;5.43;1.70;;;22.40;37.80;;;;;;5058461;28;20064;-45
2022/05/12 12:58:12;;;;;;;7.53;1.98;;;22.40;38.30;;;;;;5067258;28;20059;-45
2022/05/12 13:00:40;;;;;;;5.85;1.60;;;22.40;38.50;;;;;;5061589;28;20057;-43
2022/05/12 13:03:19;;;;;;;3.35;1.38;;;22.40;37.70;;;;;;5057047;28;20056;-44
2022/05/12 13:05:47;;;;;;;6.30;1.50;;;22.40;38.80;;;;;;5060609;28;20059;-44
2022/05/12 13:08:25;;;;;;;5.28;1.50;;;22.50;39.00;;;;;;5060922;28;20163;-44
2022/05/12 13:10:59;;;;;;;6.97;2.00;;;22.50;37.10;;;;;;5055750;28;20048;-44
2022/05/12 13:13:28;;;;;;;5.20;1.80;;;22.50;37.70;;;;;;5057478;28;20052;-43
2022/05/12 13:15:58;;;;;;;5.20;1.60;;;22.50;38.00;;;;;;5059451;28;20048;-44
2022/05/12 13:18:30;;;;;;;5.47;1.98;;;22.50;37.00;;;;;;5054788;28;20060;-44
2022/05/12 13:20:58;;;;;;;4.55;1.60;;;22.50;36.20;;;;;;5060847;28;20060;-44
2022/05/12 13:23:28;;;;;;;4.40;1.70;;;22.50;37.30;;;;;;5057915;28;20056;-47
2022/05/12 13:25:58;;;;;;;4.45;1.48;;;22.50;37.50;;;;;;5060850;28;20412;-43
2022/05/12 13:28:27;;;;;;;4.25;1.63;;;22.50;36.80;;;;;;5059239;28;20067;-44
2022/05/12 13:31:13;;;;;;;4.25;1.33;;;22.50;37.60;;;;;;5061317;28;20055;-43